Observations for CHRISTCHURCH IN, New Zealand (NZCH)

NZCH 192000Z AUTO 04006KT 9999 NCD 13/08 Q1011 NOSIG
NZCH 191930Z AUTO 05008KT 9999 NCD 12/08 Q1011 NOSIG
NZCH 191900Z AUTO 03003KT 9999 NCD 09/09 Q1011 NOSIG
NZCH 191830Z AUTO 02003KT 9999 NCD 07/07 Q1011 NOSIG
NZCH 191800Z AUTO 03001KT 1400 R02/0500D R20/P2000N BCFG NCD 06/06 Q1011 BECMG 9999 NSW 
NZCH 191730Z AUTO 04001KT 0550 R02/P2000N R20/1400D FG VV003 06/06 Q1011 BECMG 9999 NSW 
NZCH 191700Z AUTO 04002KT 9999 NCD 07/07 Q1011 NOSIG
NZCH 191630Z AUTO 04002KT 1400 R02/P2000N R20/P2000N BCFG NCD 07/07 Q1011 NOSIG 
NZCH 191600Z AUTO 02001KT 9999 NCD 06/06 Q1011 NOSIG
NZCH 191530Z AUTO 33003KT 9999 NCD 08/08 Q1010 NOSIG
NZCH 191500Z AUTO 34004KT 9999 NCD 07/06 Q1010 NOSIG
NZCH 191430Z AUTO 04002KT 9999 NCD 09/08 Q1010 NOSIG
NZCH 191400Z AUTO 03002KT 9999 NCD 10/08 Q1010 NOSIG
NZCH 191330Z AUTO 04004KT 9999 NCD 09/07 Q1010 NOSIG
NZCH 191300Z AUTO 07005KT 9999 NCD 09/08 Q1010 NOSIG
NZCH 191230Z AUTO 04003KT 9999 NCD 10/08 Q1010 NOSIG
NZCH 191200Z AUTO 03003KT 9999 NCD 11/08 Q1010 NOSIG
NZCH 191130Z AUTO 06004KT 010V100 9999 NCD 11/08 Q1009 NOSIG
NZCH 191100Z AUTO 10005KT 9999 NCD 11/09 Q1009 NOSIG
NZCH 191030Z AUTO 11006KT 9999 NCD 11/10 Q1009 NOSIG
NZCH 191000Z AUTO 06005KT 9999 NCD 10/09 Q1009 NOSIG
NZCH 190930Z AUTO 10005KT 9999 SCT100/// 12/10 Q1008 NOSIG  
NZCH 190900Z AUTO 09005KT 9999 BKN100/// 13/10 Q1008 NOSIG  
NZCH 190830Z AUTO 10004KT 9999 SCT070/// OVC100/// 13/10 Q1008 NOSIG
NZCH 190800Z AUTO 08003KT 9999 BKN070/// 14/10 Q1008 NOSIG  
NZCH 190730Z AUTO 09004KT 9999 BKN075/// 14/10 Q1007 NOSIG  
NZCH 190700Z AUTO 06006KT 9999 SCT100/// 14/07 Q1007 NOSIG  
NZCH 190630Z AUTO 36003KT 9999 BKN095/// 16/09 Q1006 NOSIG  
NZCH 190600Z AUTO 02004KT 330V080 9999 FEW095/// 17/08 Q1005 NOSIG  
NZCH 190530Z AUTO 19004KT 9999 BKN090/// 18/04 Q1005 NOSIG  
NZCH 190500Z AUTO 16005KT 100V280 9999 FEW085/// 18/02 Q1004 NOSIG  
NZCH 190430Z AUTO 18006KT 9999 NCD 19/05 Q1004 BECMG 06010KT
NZCH 190400Z AUTO 18007KT 140V220 9999 NCD 19/04 Q1004 BECMG 06010KT
NZCH 190330Z AUTO 18007KT 140V210 9999 NCD 19/06 Q1003 BECMG 06010KT
NZCH 190300Z AUTO 17010KT 9999 NCD 18/06 Q1003 NOSIG
NZCH 190230Z AUTO 17010KT 9999 NCD 18/06 Q1003 NOSIG
NZCH 190200Z AUTO 18008KT 140V210 9999 NCD 18/07 Q1003 NOSIG
NZCH 190130Z AUTO 16009KT 9999 NCD 17/10 Q1003 NOSIG
NZCH 190100Z AUTO 19007KT 160V220 9999 NCD 16/11 Q1003 NOSIG
NZCH 190030Z AUTO 17008KT 150V210 9999 NCD 15/10 Q1002 NOSIG
NZCH 190000Z AUTO 20009KT 150V240 9999 NCD 15/11 Q1002 NOSIG
NZCH 182330Z AUTO 19010KT 9999 NCD 14/10 Q1002 NOSIG
NZCH 182300Z AUTO 18009KT 150V210 9999 FEW016/// 14/11 Q1002 NOSIG  
NZCH 182230Z AUTO 20008KT 160V240 9999 NCD 13/10 Q1001 NOSIG
NZCH 182200Z AUTO 21008KT 9999 NCD 12/09 Q1001 NOSIG
NZCH 182130Z AUTO 20008KT 9999 NCD 10/08 Q1001 NOSIG
NZCH 182100Z AUTO 20010KT 9999 NCD 10/07 Q1001 NOSIG
NZCH 182030Z AUTO 22006KT 9999 NCD 10/08 Q1000 NOSIG
NZCH 182000Z AUTO 21006KT 9999 NCD 10/07 Q1000 NOSIG
NZCH 181930Z AUTO 24006KT 9999 NCD 09/08 Q1000 NOSIG